createdAt,value
2023-03-03T00:00:26.123Z,2.13
2023-03-03T00:01:28.896Z,2.37
2023-03-03T00:02:32.097Z,2.30
2023-03-03T00:03:35.719Z,2.25
2023-03-03T00:04:39.034Z,2.39
2023-03-03T00:05:41.974Z,2.23
2023-03-03T00:06:44.748Z,2.19
2023-03-03T00:07:47.527Z,2.06
2023-03-03T00:08:51.023Z,2.04
2023-03-03T00:09:54.108Z,1.87
2023-03-03T00:10:57.062Z,1.73
2023-03-03T00:11:59.973Z,2.11
2023-03-03T00:14:05.590Z,1.86
2023-03-03T00:22:29.399Z,2.45
2023-03-03T00:23:32.380Z,2.65
2023-03-03T00:24:35.769Z,3.01
2023-03-03T00:25:38.747Z,2.56
2023-03-03T00:26:41.733Z,2.90
2023-03-03T00:27:44.597Z,2.82
2023-03-03T00:28:47.584Z,2.18
2023-03-03T00:29:50.573Z,2.43
2023-03-03T00:30:53.936Z,2.66
2023-03-03T00:31:56.869Z,2.58
2023-03-03T00:32:59.705Z,2.59
2023-03-03T00:34:02.467Z,2.95
2023-03-03T00:35:05.870Z,3.34
2023-03-03T00:36:08.518Z,4.22
2023-03-03T00:37:11.816Z,3.67
2023-03-03T00:38:15.003Z,2.95
2023-03-03T00:39:18.270Z,2.82
2023-03-03T00:40:21.464Z,3.43
2023-03-03T00:41:24.627Z,2.99
2023-03-03T00:42:27.680Z,3.48
2023-03-03T00:43:30.585Z,3.04
2023-03-03T00:44:33.779Z,2.72
2023-03-03T00:45:36.754Z,2.76
2023-03-03T00:46:40.412Z,3.18
2023-03-03T00:47:43.725Z,3.04
2023-03-03T00:48:46.709Z,3.42
2023-03-03T00:49:49.835Z,3.76
2023-03-03T00:50:52.751Z,3.88
2023-03-03T00:51:55.837Z,3.89
2023-03-03T00:52:58.822Z,4.58
2023-03-03T00:54:01.927Z,4.35
2023-03-03T00:55:04.980Z,4.19
2023-03-03T00:56:08.147Z,3.72
2023-03-03T00:57:11.539Z,4.24
2023-03-03T00:58:14.724Z,3.85
2023-03-03T00:59:17.802Z,2.96
2023-03-03T01:00:20.700Z,3.96
2023-03-03T01:01:24.126Z,4.12
2023-03-03T01:02:27.086Z,3.91
2023-03-03T01:03:29.730Z,3.96
2023-03-03T01:04:32.789Z,3.59
2023-03-03T01:05:36.019Z,3.58
2023-03-03T01:06:38.948Z,3.07
2023-03-03T01:07:42.145Z,3.36
2023-03-03T01:08:45.320Z,3.13
2023-03-03T01:09:48.512Z,2.88
2023-03-03T01:10:51.822Z,3.07
2023-03-03T01:11:55.001Z,2.87
2023-03-03T01:12:58.168Z,3.00
2023-03-03T01:14:01.059Z,3.26
2023-03-03T01:15:04.021Z,2.75
2023-03-03T01:16:07.210Z,2.69
2023-03-03T01:17:10.547Z,2.64
2023-03-03T01:18:13.593Z,2.71
2023-03-03T01:19:16.930Z,2.80
2023-03-03T01:20:20.139Z,3.05
2023-03-03T01:21:23.500Z,3.11
2023-03-03T01:22:26.620Z,2.95
2023-03-03T01:23:29.655Z,2.95
2023-03-03T01:24:33.464Z,3.03
2023-03-03T01:25:36.744Z,2.95
2023-03-03T01:26:40.026Z,2.65
2023-03-03T01:27:43.415Z,2.48
2023-03-03T01:28:46.744Z,2.85
2023-03-03T01:29:49.865Z,2.96
2023-03-03T01:30:53.085Z,3.08
2023-03-03T01:31:56.205Z,3.08
2023-03-03T01:32:59.533Z,2.64
2023-03-03T01:34:02.825Z,2.74
2023-03-03T01:35:05.904Z,2.81
2023-03-03T01:36:09.571Z,2.68
2023-03-03T01:37:12.358Z,2.61
2023-03-03T01:38:15.755Z,2.70
2023-03-03T01:39:18.616Z,2.45
2023-03-03T01:40:21.497Z,2.58
2023-03-03T01:41:27.371Z,2.69
2023-03-03T01:42:30.592Z,2.79
2023-03-03T01:43:33.803Z,2.53
2023-03-03T01:44:36.791Z,2.50
2023-03-03T01:45:40.161Z,2.38
2023-03-03T01:46:43.135Z,2.62
2023-03-03T01:47:46.331Z,2.66
2023-03-03T01:48:49.704Z,2.72
2023-03-03T01:49:52.503Z,2.67
2023-03-03T01:50:55.270Z,3.09
2023-03-03T01:51:58.044Z,3.32
2023-03-03T01:53:01.053Z,3.84
2023-03-03T01:54:04.079Z,4.15
2023-03-03T01:55:07.435Z,5.55
2023-03-03T01:56:11.168Z,6.40
2023-03-03T01:57:14.472Z,7.17
2023-03-03T01:58:17.842Z,6.66
2023-03-03T01:59:21.555Z,7.39
2023-03-03T02:00:24.649Z,7.14
2023-03-03T02:01:27.553Z,7.35
2023-03-03T02:02:30.932Z,6.98
2023-03-03T02:03:33.836Z,7.31
2023-03-03T02:04:36.848Z,8.55
2023-03-03T02:05:39.793Z,8.76
2023-03-03T02:06:42.579Z,7.63
2023-03-03T02:07:45.240Z,7.78
2023-03-03T02:08:48.133Z,7.57
2023-03-03T02:09:51.187Z,4.91
2023-03-03T02:10:53.854Z,4.79
2023-03-03T02:11:56.834Z,4.54
2023-03-03T02:13:00.055Z,3.86
2023-03-03T02:14:03.113Z,3.21
2023-03-03T02:15:06.375Z,3.47
2023-03-03T02:16:09.617Z,3.68
2023-03-03T02:17:12.651Z,2.95
2023-03-03T02:18:16.048Z,2.63
2023-03-03T02:19:18.936Z,2.97
2023-03-03T02:20:22.296Z,2.59
2023-03-03T02:21:25.368Z,2.91
2023-03-03T02:22:28.484Z,2.88
2023-03-03T02:23:31.774Z,2.59
2023-03-03T02:24:34.916Z,2.13
2023-03-03T02:25:38.299Z,1.78
2023-03-03T02:26:41.232Z,2.02
2023-03-03T02:27:44.266Z,1.68
2023-03-03T02:28:47.362Z,1.49
2023-03-03T02:29:50.225Z,1.28
2023-03-03T02:30:53.756Z,1.18
2023-03-03T02:31:56.859Z,1.25
2023-03-03T02:33:00.076Z,1.21
2023-03-03T02:34:03.348Z,1.43
2023-03-03T02:35:06.813Z,1.00
2023-03-03T02:36:10.227Z,1.38
2023-03-03T02:37:13.522Z,1.31
2023-03-03T02:38:16.698Z,1.42
2023-03-03T02:39:19.777Z,1.34
2023-03-03T02:40:22.977Z,1.41
2023-03-03T02:41:26.142Z,1.59
2023-03-03T02:42:28.918Z,1.73
2023-03-03T02:43:31.984Z,1.42
2023-03-03T02:44:34.983Z,1.10
2023-03-03T02:45:38.124Z,1.32
2023-03-03T02:46:41.377Z,1.14
2023-03-03T02:47:44.221Z,1.16
2023-03-03T02:48:47.089Z,1.29
2023-03-03T02:49:50.182Z,1.73
2023-03-03T02:50:53.339Z,1.58
2023-03-03T02:51:56.832Z,1.38
2023-03-03T02:52:59.735Z,1.51
2023-03-03T02:54:03.098Z,1.09
2023-03-03T02:55:05.968Z,1.07
2023-03-03T02:56:08.937Z,1.08
2023-03-03T02:57:12.436Z,1.29
2023-03-03T02:58:15.358Z,1.15
2023-03-03T02:59:18.476Z,0.98
2023-03-03T03:00:21.575Z,1.12
2023-03-03T03:01:24.929Z,1.08
2023-03-03T03:02:28.065Z,0.97
2023-03-03T03:03:31.005Z,1.46
2023-03-03T03:04:34.127Z,1.08
2023-03-03T03:05:37.479Z,0.93
2023-03-03T03:06:40.676Z,1.00
2023-03-03T03:07:44.044Z,0.88
2023-03-03T03:08:47.158Z,0.75
2023-03-03T03:09:50.437Z,0.95
2023-03-03T03:10:53.785Z,0.82
2023-03-03T03:11:57.098Z,1.02
2023-03-03T03:13:00.160Z,1.07
2023-03-03T03:14:03.141Z,1.33
2023-03-03T03:15:06.511Z,1.35
2023-03-03T03:16:09.801Z,1.17
2023-03-03T03:17:12.774Z,1.12
2023-03-03T03:18:16.417Z,1.05
2023-03-03T03:19:19.702Z,1.16
2023-03-03T03:20:22.851Z,1.42
2023-03-03T03:21:25.927Z,1.44
2023-03-03T03:22:28.990Z,1.32
2023-03-03T03:23:32.593Z,1.05
2023-03-03T03:24:35.602Z,1.11
2023-03-03T03:25:38.949Z,1.16
2023-03-03T03:26:42.132Z,1.25
2023-03-03T03:27:45.316Z,1.39
2023-03-03T03:28:48.818Z,1.11
2023-03-03T03:29:52.017Z,1.31
2023-03-03T03:30:55.152Z,1.39
2023-03-03T03:31:58.194Z,1.09
2023-03-03T03:33:01.018Z,1.42
2023-03-03T03:34:03.926Z,2.72
2023-03-03T03:35:06.673Z,1.62
2023-03-03T03:36:09.595Z,1.76
2023-03-03T03:37:12.664Z,1.54
2023-03-03T03:38:15.697Z,1.48
2023-03-03T03:39:19.011Z,1.29
2023-03-03T03:40:22.159Z,1.47
2023-03-03T03:41:25.034Z,1.45
2023-03-03T03:42:27.913Z,1.37
2023-03-03T03:43:30.890Z,1.40
2023-03-03T03:44:33.910Z,1.53
2023-03-03T03:45:37.529Z,1.54
2023-03-03T03:46:40.836Z,1.37
2023-03-03T03:47:43.718Z,1.38
2023-03-03T03:48:46.905Z,1.67
2023-03-03T03:49:49.923Z,1.26
2023-03-03T03:50:53.264Z,1.60
2023-03-03T03:51:56.711Z,1.92
2023-03-03T03:52:59.736Z,2.16
2023-03-03T03:54:03.112Z,2.35
2023-03-03T03:55:06.606Z,2.19
2023-03-03T03:56:10.089Z,2.06
2023-03-03T03:57:13.389Z,2.21
2023-03-03T03:58:16.574Z,2.22
2023-03-03T03:59:20.070Z,2.12
2023-03-03T04:00:23.340Z,2.05
2023-03-03T04:01:26.724Z,2.25
2023-03-03T04:02:29.852Z,2.20
2023-03-03T04:03:33.136Z,2.55
2023-03-03T04:04:36.480Z,2.09
2023-03-03T04:05:39.784Z,2.25
2023-03-03T04:06:42.944Z,2.01
2023-03-03T04:07:46.033Z,2.26
2023-03-03T04:08:49.416Z,2.02
2023-03-03T04:09:52.496Z,2.33
2023-03-03T04:10:55.893Z,1.96
2023-03-03T04:11:58.973Z,2.17
2023-03-03T04:13:02.132Z,2.10
2023-03-03T04:14:05.419Z,2.02
2023-03-03T04:15:08.626Z,2.14
2023-03-03T04:16:12.190Z,2.04
2023-03-03T04:17:15.325Z,2.01
2023-03-03T04:18:18.260Z,1.81
2023-03-03T04:19:21.226Z,1.82
2023-03-03T04:20:24.550Z,2.05
2023-03-03T04:21:27.718Z,1.77
2023-03-03T04:22:30.681Z,1.68
2023-03-03T04:23:33.756Z,1.85
2023-03-03T04:24:36.838Z,1.55
2023-03-03T04:25:39.821Z,1.28
2023-03-03T04:26:43.004Z,1.75
2023-03-03T04:27:46.067Z,1.55
2023-03-03T04:28:49.256Z,1.31
2023-03-03T04:29:52.433Z,1.44
2023-03-03T04:30:55.582Z,1.54
2023-03-03T04:31:58.910Z,1.34
2023-03-03T04:33:02.094Z,1.48
2023-03-03T04:34:05.378Z,1.38
2023-03-03T04:35:08.873Z,1.15
2023-03-03T04:36:12.270Z,1.27
2023-03-03T04:37:15.523Z,1.34
2023-03-03T04:38:18.602Z,1.44
2023-03-03T04:39:22.115Z,1.29
2023-03-03T04:40:25.228Z,1.39
2023-03-03T04:41:28.411Z,1.49
2023-03-03T04:42:31.955Z,1.53
2023-03-03T04:43:35.070Z,1.84
2023-03-03T04:44:38.527Z,1.64
2023-03-03T04:45:41.498Z,1.48
2023-03-03T04:46:44.616Z,1.58
2023-03-03T04:47:47.998Z,1.52
2023-03-03T04:48:50.841Z,1.59
2023-03-03T04:49:53.921Z,1.45
2023-03-03T04:50:57.002Z,1.48
2023-03-03T04:52:00.356Z,1.39
2023-03-03T04:53:03.769Z,1.33
2023-03-03T04:54:07.005Z,1.62
2023-03-03T04:55:10.580Z,1.40
2023-03-03T04:56:13.738Z,1.61
2023-03-03T04:57:17.035Z,1.49
2023-03-03T04:58:20.395Z,1.50
2023-03-03T04:59:23.883Z,1.56
2023-03-03T05:00:27.113Z,1.62
2023-03-03T05:01:30.695Z,1.47
2023-03-03T05:02:33.819Z,1.65
2023-03-03T05:03:37.028Z,1.72
2023-03-03T05:04:40.180Z,1.55
2023-03-03T05:05:43.407Z,2.24
2023-03-03T05:06:46.352Z,1.78
2023-03-03T05:07:49.335Z,1.87
2023-03-03T05:08:52.818Z,2.18
2023-03-03T05:09:55.792Z,1.96
2023-03-03T05:10:58.974Z,2.27
2023-03-03T05:12:02.273Z,2.50
2023-03-03T05:13:05.136Z,1.93
2023-03-03T05:14:08.222Z,1.86
2023-03-03T05:15:11.201Z,2.05
2023-03-03T05:16:14.719Z,1.81
2023-03-03T05:17:18.079Z,1.74
2023-03-03T05:18:21.304Z,2.06
2023-03-03T05:19:24.195Z,1.52
2023-03-03T05:20:27.516Z,1.49
2023-03-03T05:21:30.796Z,1.38
2023-03-03T05:22:33.978Z,1.47
2023-03-03T05:23:37.384Z,1.50
2023-03-03T05:24:40.896Z,1.62
2023-03-03T05:25:44.165Z,1.75
2023-03-03T05:26:47.840Z,1.75
2023-03-03T05:27:51.111Z,1.42
2023-03-03T05:28:54.410Z,1.59
2023-03-03T05:29:57.681Z,1.58
2023-03-03T05:31:00.785Z,1.65
2023-03-03T05:32:03.933Z,1.58
2023-03-03T05:33:07.014Z,1.60
2023-03-03T05:34:10.259Z,1.48
2023-03-03T05:35:13.900Z,1.65
2023-03-03T05:36:17.276Z,1.63
2023-03-03T05:37:20.271Z,1.75
2023-03-03T05:38:23.235Z,1.98
2023-03-03T05:39:26.436Z,1.65
2023-03-03T05:40:29.705Z,1.69
2023-03-03T05:41:32.676Z,1.95
2023-03-03T05:42:35.740Z,1.68
2023-03-03T05:43:38.542Z,1.57
2023-03-03T05:44:41.624Z,1.54
2023-03-03T05:45:44.582Z,1.47
2023-03-03T05:46:47.379Z,1.52
2023-03-03T05:47:50.228Z,1.94
2023-03-03T05:48:53.241Z,1.61
2023-03-03T05:49:56.413Z,1.66
2023-03-03T05:51:00.109Z,1.33
2023-03-03T05:52:02.441Z,1.54
2023-03-03T05:53:05.017Z,1.72
2023-03-03T05:54:07.896Z,1.77
2023-03-03T05:55:10.525Z,1.63
2023-03-03T05:56:14.565Z,1.51
2023-03-03T05:57:17.377Z,1.34
2023-03-03T05:58:20.209Z,1.62
2023-03-03T05:59:23.392Z,1.55
2023-03-03T06:00:26.173Z,1.62
2023-03-03T06:01:29.353Z,1.58
2023-03-03T06:02:32.549Z,1.75
2023-03-03T06:03:35.715Z,1.62
2023-03-03T06:04:38.816Z,1.59
2023-03-03T06:05:41.683Z,1.85
2023-03-03T06:06:45.219Z,1.81
2023-03-03T06:07:48.453Z,1.79
2023-03-03T06:08:51.624Z,1.87
2023-03-03T06:09:54.710Z,1.89
2023-03-03T06:10:58.082Z,1.69
2023-03-03T06:12:01.582Z,1.69
2023-03-03T06:13:04.452Z,1.70
2023-03-03T06:14:07.531Z,1.55
2023-03-03T06:15:11.913Z,1.72
2023-03-03T06:16:15.078Z,1.87
2023-03-03T06:17:18.751Z,1.80
2023-03-03T06:18:22.004Z,1.63
2023-03-03T06:19:24.986Z,1.68
2023-03-03T06:20:27.968Z,1.67
2023-03-03T06:21:30.929Z,1.55
2023-03-03T06:22:34.241Z,1.76
2023-03-03T06:23:37.395Z,1.46
2023-03-03T06:24:40.492Z,1.52
2023-03-03T06:25:43.880Z,1.59
2023-03-03T06:26:46.868Z,1.41
2023-03-03T06:27:50.227Z,1.34
2023-03-03T06:28:53.610Z,1.46
2023-03-03T06:29:56.804Z,1.65
2023-03-03T06:30:59.666Z,1.78
2023-03-03T06:32:03.219Z,1.66
2023-03-03T06:33:06.649Z,1.61
2023-03-03T06:34:09.752Z,1.61
2023-03-03T06:35:13.032Z,1.72
2023-03-03T06:36:16.295Z,1.71
2023-03-03T06:37:19.792Z,1.54
2023-03-03T06:38:23.775Z,1.75
2023-03-03T06:39:26.860Z,1.73
2023-03-03T06:40:29.759Z,1.76
2023-03-03T06:41:32.815Z,1.64
2023-03-03T06:42:36.208Z,1.73
2023-03-03T06:43:39.637Z,1.62
2023-03-03T06:44:42.875Z,1.73
2023-03-03T06:45:45.807Z,1.65
2023-03-03T06:46:48.321Z,2.02
2023-03-03T06:47:50.907Z,1.81
2023-03-03T06:48:53.785Z,1.66
2023-03-03T06:49:56.248Z,1.68
2023-03-03T06:50:58.713Z,1.79
2023-03-03T06:52:01.158Z,1.66
2023-03-03T06:53:03.649Z,1.64
2023-03-03T06:54:06.336Z,1.85
2023-03-03T06:55:08.865Z,1.86
2023-03-03T06:56:11.592Z,1.73
2023-03-03T06:57:14.047Z,1.86
2023-03-03T06:58:16.637Z,1.92
2023-03-03T06:59:19.305Z,1.86
2023-03-03T07:00:21.732Z,2.01
2023-03-03T07:01:24.275Z,1.92
2023-03-03T07:02:26.797Z,1.92
2023-03-03T07:03:29.209Z,2.05
2023-03-03T07:04:31.873Z,1.76
2023-03-03T07:05:34.425Z,1.61
2023-03-03T07:06:36.980Z,1.68
2023-03-03T07:07:39.247Z,1.82
2023-03-03T07:08:41.463Z,2.02
2023-03-03T07:09:43.657Z,1.92
2023-03-03T07:10:46.106Z,1.86
2023-03-03T07:11:48.709Z,1.88
2023-03-03T07:12:51.338Z,2.09
2023-03-03T07:13:53.857Z,2.05
2023-03-03T07:14:56.778Z,2.05
2023-03-03T07:15:59.409Z,2.15
2023-03-03T07:17:02.309Z,1.92
2023-03-03T07:18:04.890Z,1.91
2023-03-03T07:19:07.465Z,1.75
2023-03-03T07:20:10.286Z,1.92
2023-03-03T07:21:12.922Z,2.08
2023-03-03T07:22:15.440Z,2.19
2023-03-03T07:23:17.826Z,2.05
2023-03-03T07:24:20.361Z,2.13
2023-03-03T07:25:22.823Z,2.25
2023-03-03T07:26:25.337Z,2.33
2023-03-03T07:27:27.837Z,1.86
2023-03-03T07:28:30.207Z,2.88
2023-03-03T07:29:32.673Z,2.77
2023-03-03T07:30:35.506Z,2.27
2023-03-03T07:31:38.038Z,1.97
2023-03-03T07:32:40.777Z,2.07
2023-03-03T07:33:43.211Z,1.96
2023-03-03T07:34:45.714Z,2.20
2023-03-03T07:35:48.371Z,2.06
2023-03-03T07:36:51.078Z,1.92
2023-03-03T07:37:53.642Z,1.88
2023-03-03T07:38:56.262Z,1.83
2023-03-03T07:39:58.770Z,2.21
2023-03-03T07:41:01.324Z,2.09
2023-03-03T07:42:03.856Z,1.83
2023-03-03T07:43:06.088Z,2.14
2023-03-03T07:45:26.004Z,2.43
2023-03-03T07:46:29.178Z,2.42
2023-03-03T07:47:32.106Z,2.81
2023-03-03T07:48:35.591Z,2.58
2023-03-03T07:49:38.648Z,2.75
2023-03-03T07:50:41.634Z,3.33
2023-03-03T07:51:44.727Z,2.75
2023-03-03T07:52:47.794Z,2.91
2023-03-03T07:53:50.885Z,3.02
2023-03-03T07:54:54.161Z,2.96
2023-03-03T07:55:57.340Z,3.19
2023-03-03T07:57:00.333Z,3.13
2023-03-03T07:58:06.785Z,3.33
2023-03-03T07:59:09.853Z,3.32
2023-03-03T08:00:12.729Z,3.21
2023-03-03T08:01:16.035Z,3.11
2023-03-03T08:02:18.899Z,3.33
2023-03-03T08:03:22.110Z,3.20
2023-03-03T08:04:25.278Z,3.06
2023-03-03T08:05:28.350Z,2.85
2023-03-03T08:06:31.820Z,3.09
2023-03-03T08:07:34.604Z,3.33
2023-03-03T08:08:37.468Z,3.16
2023-03-03T08:09:40.364Z,3.02
2023-03-03T08:10:43.490Z,3.05
2023-03-03T08:11:46.507Z,3.27
2023-03-03T08:12:49.265Z,3.25
2023-03-03T08:13:52.266Z,2.96
2023-03-03T08:14:54.914Z,3.13
2023-03-03T08:15:58.169Z,3.04
2023-03-03T08:17:01.968Z,3.33
2023-03-03T08:18:05.493Z,3.69
2023-03-03T08:19:08.367Z,3.71
2023-03-03T08:20:11.877Z,4.80
2023-03-03T08:21:14.727Z,3.25
2023-03-03T08:22:17.799Z,3.28
2023-03-03T08:23:20.817Z,3.42
2023-03-03T08:24:23.884Z,3.53
2023-03-03T08:25:26.840Z,3.52
2023-03-03T08:26:30.119Z,3.27
2023-03-03T08:27:33.299Z,3.39
2023-03-03T08:28:36.275Z,3.22
2023-03-03T08:29:39.357Z,2.99
2023-03-03T08:30:42.309Z,3.21
2023-03-03T08:31:45.469Z,3.23
2023-03-03T08:32:48.670Z,3.06
2023-03-03T08:33:52.095Z,3.29
2023-03-03T08:34:55.670Z,3.85
2023-03-03T08:35:58.867Z,4.15
2023-03-03T08:37:02.023Z,5.91
2023-03-03T08:38:05.433Z,5.13
2023-03-03T08:39:08.399Z,3.51
2023-03-03T08:40:11.470Z,3.62
2023-03-03T08:41:14.345Z,4.21
2023-03-03T08:42:17.317Z,4.10
2023-03-03T08:43:20.515Z,3.79
2023-03-03T08:44:23.691Z,3.65
2023-03-03T08:45:26.774Z,4.44
2023-03-03T08:46:29.791Z,4.05
2023-03-03T08:47:33.134Z,4.95
2023-03-03T08:48:36.212Z,4.82
2023-03-03T08:49:39.555Z,4.28
2023-03-03T08:50:42.782Z,4.36
2023-03-03T08:51:45.892Z,4.27
2023-03-03T08:52:48.850Z,5.25
2023-03-03T08:53:51.914Z,5.57
2023-03-03T08:54:54.706Z,6.72
2023-03-03T08:55:57.877Z,6.23
2023-03-03T08:57:00.462Z,6.93
2023-03-03T08:58:03.271Z,6.58
2023-03-03T08:59:06.296Z,8.19
2023-03-03T09:00:09.375Z,8.72
2023-03-03T09:01:12.562Z,9.02
2023-03-03T09:02:15.755Z,8.25
2023-03-03T09:03:18.841Z,9.45
2023-03-03T09:04:21.952Z,9.86
2023-03-03T09:05:25.186Z,10.96
2023-03-03T09:06:28.486Z,8.60
2023-03-03T09:07:32.871Z,7.87
2023-03-03T09:08:36.478Z,7.46
2023-03-03T09:09:39.198Z,7.42
2023-03-03T09:10:42.614Z,6.89
2023-03-03T09:11:45.497Z,7.21
2023-03-03T09:12:48.300Z,6.47
2023-03-03T09:13:51.098Z,5.20
2023-03-03T09:14:56.137Z,5.32
2023-03-03T09:15:59.186Z,5.83
2023-03-03T09:17:02.235Z,5.90
2023-03-03T09:18:05.321Z,5.72
2023-03-03T09:19:08.296Z,5.39
2023-03-03T09:20:14.272Z,5.63
2023-03-03T09:21:17.003Z,5.09
2023-03-03T09:22:19.957Z,4.84
2023-03-03T09:23:23.052Z,4.97
2023-03-03T09:24:26.197Z,5.53
2023-03-03T09:25:28.899Z,5.72
2023-03-03T09:26:31.800Z,6.07
2023-03-03T09:27:34.543Z,6.59
2023-03-03T09:28:38.673Z,6.90
2023-03-03T09:29:41.335Z,6.16
2023-03-03T09:30:44.227Z,6.13
2023-03-03T09:31:47.264Z,5.68
2023-03-03T09:32:49.959Z,5.79
2023-03-03T09:33:52.740Z,6.50
2023-03-03T09:34:55.592Z,5.46
2023-03-03T09:35:58.801Z,5.52
2023-03-03T09:37:01.762Z,5.60
2023-03-03T09:38:04.747Z,5.50
2023-03-03T09:39:07.295Z,5.01
2023-03-03T09:40:09.963Z,5.18
2023-03-03T09:41:12.742Z,5.48
2023-03-03T09:42:15.407Z,5.30
2023-03-03T09:43:19.945Z,5.17
2023-03-03T09:44:22.496Z,5.09
2023-03-03T09:45:31.099Z,4.90
2023-03-03T09:46:34.128Z,5.39
2023-03-03T09:47:43.540Z,5.62
2023-03-03T09:48:45.996Z,5.51
2023-03-03T09:49:48.639Z,5.38
2023-03-03T09:50:51.536Z,6.25
2023-03-03T09:51:54.502Z,5.62
2023-03-03T09:52:58.883Z,5.94
2023-03-03T09:54:01.877Z,6.69
2023-03-03T09:55:05.370Z,6.35
2023-03-03T09:56:08.076Z,5.82
2023-03-03T09:57:10.629Z,5.88
2023-03-03T09:58:13.480Z,5.82
2023-03-03T09:59:16.206Z,6.18
2023-03-03T10:00:18.823Z,6.02
2023-03-03T10:01:21.612Z,5.47
2023-03-03T10:02:24.409Z,5.82
2023-03-03T10:03:27.384Z,6.13
2023-03-03T10:04:30.112Z,5.65
2023-03-03T10:05:33.014Z,5.62
2023-03-03T10:06:36.068Z,5.56
2023-03-03T10:07:38.956Z,5.62
2023-03-03T10:08:41.814Z,5.52
2023-03-03T10:09:44.793Z,5.58
2023-03-03T10:10:47.766Z,5.40
2023-03-03T10:11:50.667Z,5.12
2023-03-03T10:12:53.790Z,5.23
2023-03-03T10:13:56.706Z,4.69
2023-03-03T10:15:00.297Z,4.82
2023-03-03T10:16:04.163Z,5.08
2023-03-03T10:17:07.380Z,4.82
2023-03-03T10:18:10.576Z,5.09
2023-03-03T10:19:15.168Z,5.54
2023-03-03T10:20:18.060Z,4.83
2023-03-03T10:21:20.727Z,4.70
2023-03-03T10:22:23.492Z,4.40
2023-03-03T10:23:26.152Z,4.43
2023-03-03T10:24:29.139Z,4.62
2023-03-03T10:25:31.921Z,4.69
2023-03-03T10:26:44.860Z,4.76
2023-03-03T10:27:39.499Z,4.59
2023-03-03T10:28:42.269Z,4.71
2023-03-03T10:29:45.367Z,4.68
2023-03-03T10:31:03.606Z,4.65
2023-03-03T10:31:53.171Z,4.12
2023-03-03T10:32:56.485Z,4.19
2023-03-03T10:33:59.490Z,4.41
2023-03-03T10:35:02.302Z,4.70
2023-03-03T10:36:07.624Z,4.37
2023-03-03T10:37:09.371Z,4.34
2023-03-03T10:38:12.246Z,4.19
2023-03-03T10:39:15.026Z,4.38
2023-03-03T10:40:17.803Z,4.75
2023-03-03T10:41:20.661Z,4.62
2023-03-03T10:42:23.547Z,4.15
2023-03-03T10:43:32.253Z,4.80
2023-03-03T10:44:31.455Z,3.85
2023-03-03T10:45:34.427Z,3.88
2023-03-03T10:46:37.415Z,4.14
2023-03-03T10:47:40.461Z,4.32
2023-03-03T10:48:45.724Z,4.18
2023-03-03T10:49:50.646Z,4.15
2023-03-03T10:50:53.500Z,4.25
2023-03-03T10:51:56.695Z,4.33
2023-03-03T10:53:00.090Z,4.16
2023-03-03T10:54:03.041Z,4.18
2023-03-03T10:55:06.065Z,4.08
2023-03-03T10:56:09.225Z,4.50
2023-03-03T10:57:12.385Z,4.37
2023-03-03T10:58:15.755Z,4.33
2023-03-03T10:59:18.860Z,4.06
2023-03-03T11:00:21.740Z,4.08
2023-03-03T11:01:24.919Z,3.94
2023-03-03T11:02:27.990Z,4.31
2023-03-03T11:03:31.570Z,4.18
2023-03-03T11:04:34.855Z,4.04
2023-03-03T11:05:38.459Z,3.86
2023-03-03T11:06:41.745Z,4.29
2023-03-03T11:07:44.723Z,3.92
2023-03-03T11:08:48.726Z,4.04
2023-03-03T11:09:51.597Z,3.85
2023-03-03T11:10:54.572Z,4.06
2023-03-03T11:11:57.668Z,3.82
2023-03-03T11:13:00.209Z,4.19
2023-03-03T11:14:03.181Z,4.04
2023-03-03T11:15:06.168Z,3.74
2023-03-03T11:16:09.044Z,3.98
2023-03-03T11:17:11.705Z,4.26
2023-03-03T11:18:14.479Z,4.18
2023-03-03T11:19:17.559Z,4.15
2023-03-03T11:20:20.444Z,4.00
2023-03-03T11:21:23.645Z,3.53
2023-03-03T11:22:26.801Z,3.92
2023-03-03T11:23:29.880Z,3.58
2023-03-03T11:24:32.754Z,3.65
2023-03-03T11:25:35.534Z,3.57
2023-03-03T11:26:38.505Z,3.70
2023-03-03T11:27:41.377Z,3.75
2023-03-03T11:28:44.356Z,3.83
2023-03-03T11:29:47.228Z,4.02
2023-03-03T11:30:49.879Z,3.94
2023-03-03T11:31:52.575Z,3.52
2023-03-03T11:32:55.235Z,3.84
2023-03-03T11:33:58.120Z,3.55
2023-03-03T11:35:00.788Z,3.55
2023-03-03T11:36:07.180Z,3.82
2023-03-03T11:37:13.185Z,4.84
2023-03-03T11:38:16.163Z,4.66
2023-03-03T11:39:22.489Z,4.56
2023-03-03T11:40:25.512Z,4.30
2023-03-03T11:41:34.232Z,4.15
2023-03-03T11:42:36.938Z,3.71
2023-03-03T11:43:39.450Z,3.98
2023-03-03T11:44:43.763Z,4.97
2023-03-03T11:45:46.390Z,4.39
2023-03-03T11:46:49.305Z,3.58
2023-03-03T11:47:52.297Z,3.63
2023-03-03T11:48:54.953Z,3.86
2023-03-03T11:49:57.927Z,3.43
2023-03-03T11:51:00.685Z,3.51
2023-03-03T11:52:03.477Z,3.64
2023-03-03T11:53:07.384Z,3.18
2023-03-03T11:54:09.932Z,3.22
2023-03-03T11:55:12.717Z,3.49
2023-03-03T11:56:15.489Z,3.67
2023-03-03T11:57:20.690Z,3.65
2023-03-03T11:58:23.277Z,3.41
2023-03-03T11:59:26.022Z,3.34
2023-03-03T12:00:29.026Z,3.15
2023-03-03T12:01:33.031Z,2.99
2023-03-03T12:02:36.144Z,3.26
2023-03-03T12:03:38.875Z,3.60
2023-03-03T12:04:41.822Z,3.19
2023-03-03T12:05:44.640Z,3.19
2023-03-03T12:06:47.716Z,2.95
2023-03-03T12:07:50.486Z,3.06
2023-03-03T12:08:53.264Z,3.07
2023-03-03T12:09:56.173Z,3.18
2023-03-03T12:10:59.150Z,3.18
2023-03-03T12:12:01.875Z,2.95
2023-03-03T12:13:04.512Z,2.79
2023-03-03T12:14:07.434Z,2.91
2023-03-03T12:15:10.519Z,3.27
2023-03-03T12:16:19.036Z,3.12
2023-03-03T12:17:22.093Z,3.25
2023-03-03T12:18:24.750Z,3.14
2023-03-03T12:19:30.596Z,2.95
2023-03-03T12:20:33.158Z,3.12
2023-03-03T12:21:35.932Z,2.94
2023-03-03T12:22:38.621Z,2.85
2023-03-03T12:23:41.268Z,2.87
2023-03-03T12:24:48.453Z,2.98
2023-03-03T12:25:51.114Z,2.89
2023-03-03T12:26:54.002Z,2.98
2023-03-03T12:27:58.028Z,2.92
2023-03-03T12:29:00.780Z,2.84
2023-03-03T12:30:05.276Z,2.99
2023-03-03T12:31:08.322Z,2.71
2023-03-03T12:32:11.073Z,2.98
2023-03-03T12:33:13.717Z,3.01
2023-03-03T12:34:16.199Z,2.98
2023-03-03T12:35:18.960Z,2.94
2023-03-03T12:36:21.517Z,2.78
2023-03-03T12:37:24.402Z,2.94
2023-03-03T12:38:27.574Z,2.60
2023-03-03T12:39:35.048Z,2.68
2023-03-03T12:40:35.169Z,3.09
2023-03-03T12:41:38.252Z,3.22
2023-03-03T12:42:41.033Z,3.16
2023-03-03T12:43:44.516Z,3.04
2023-03-03T12:44:47.401Z,2.85
2023-03-03T12:45:50.269Z,2.89
2023-03-03T12:46:53.153Z,3.14
2023-03-03T12:47:56.227Z,3.00
2023-03-03T12:48:59.206Z,2.74
2023-03-03T12:50:07.499Z,3.09
2023-03-03T12:51:06.576Z,2.95
2023-03-03T12:52:09.899Z,3.01
2023-03-03T12:53:13.068Z,2.99
2023-03-03T12:54:16.233Z,2.95
2023-03-03T12:55:18.908Z,3.30
2023-03-03T12:56:21.978Z,3.18
2023-03-03T12:57:27.413Z,3.12
2023-03-03T12:58:30.378Z,2.99
2023-03-03T12:59:33.261Z,2.58
2023-03-03T13:00:36.289Z,3.02
2023-03-03T13:01:38.917Z,3.08
2023-03-03T13:02:41.780Z,3.07
2023-03-03T13:03:55.718Z,3.13
2023-03-03T13:04:54.016Z,2.98
2023-03-03T13:05:56.656Z,3.10
2023-03-03T13:06:59.354Z,2.92
2023-03-03T13:08:02.165Z,2.85
2023-03-03T13:09:04.867Z,3.04
2023-03-03T13:10:07.481Z,3.11
2023-03-03T13:11:10.114Z,2.90
2023-03-03T13:12:12.782Z,2.92
2023-03-03T13:13:15.537Z,2.84
2023-03-03T13:14:18.218Z,3.13
2023-03-03T13:15:24.832Z,3.32
2023-03-03T13:16:35.248Z,3.28
2023-03-03T13:17:30.037Z,2.99
2023-03-03T13:18:32.773Z,3.03
2023-03-03T13:19:35.788Z,3.02
2023-03-03T13:20:38.449Z,3.23
2023-03-03T13:21:41.195Z,3.14
2023-03-03T13:22:44.083Z,3.10
2023-03-03T13:23:46.843Z,3.48
2023-03-03T13:24:49.751Z,3.42
2023-03-03T13:25:52.368Z,3.36
2023-03-03T13:26:54.954Z,3.87
2023-03-03T13:27:57.522Z,3.85
2023-03-03T13:29:00.598Z,3.95
2023-03-03T13:30:03.388Z,3.49
2023-03-03T13:31:06.147Z,3.67
2023-03-03T13:32:09.170Z,3.89
2023-03-03T13:33:11.935Z,3.77
2023-03-03T13:34:14.767Z,3.88
2023-03-03T13:35:17.548Z,4.20
2023-03-03T13:36:20.107Z,4.08
2023-03-03T13:37:22.989Z,4.02
2023-03-03T13:38:25.987Z,3.31
2023-03-03T13:39:29.354Z,3.82
2023-03-03T13:40:32.172Z,4.19
2023-03-03T13:41:35.130Z,3.66
2023-03-03T13:42:37.867Z,3.49
2023-03-03T13:43:40.766Z,3.68
2023-03-03T13:44:43.664Z,3.82
2023-03-03T13:45:46.327Z,3.66
2023-03-03T13:46:49.098Z,3.26
2023-03-03T13:47:51.980Z,3.58
2023-03-03T13:48:54.505Z,3.96
2023-03-03T13:49:57.187Z,3.56
2023-03-03T13:50:59.952Z,3.47
2023-03-03T13:52:03.031Z,3.55
2023-03-03T13:53:05.796Z,3.21
2023-03-03T13:54:08.849Z,3.42
2023-03-03T13:55:11.752Z,3.59
2023-03-03T13:56:14.527Z,3.63
2023-03-03T13:57:17.191Z,3.67
2023-03-03T13:58:19.993Z,3.43
2023-03-03T13:59:22.734Z,3.20
2023-03-03T14:00:25.671Z,3.18
2023-03-03T14:01:28.506Z,3.35
2023-03-03T14:02:31.160Z,3.53
2023-03-03T14:03:34.145Z,3.58
2023-03-03T14:04:36.930Z,3.35
2023-03-03T14:05:39.574Z,3.28
2023-03-03T14:06:42.148Z,3.35
2023-03-03T14:07:44.806Z,3.47
2023-03-03T14:08:47.488Z,3.12
2023-03-03T14:09:50.259Z,3.22